Indianapolis, Indiana
Traffic Map
Current Weather Conditions
Indianapolis, Indiana
Overcast Light Snow
Overcast
-1°
Feels Like: -6°
Wind Chill: -6° Ceiling: 3200
Heat Index: -1° Visibility: 9mi
Dew Point: -4° Wind: 13mph
Humidity: 79% Direction: 300° (WNW)
Pressure: 30.26in Gusts: 0mph
Raw Report DataKIND 300654Z 30011KT 9SM -SN OVC032 M01/M04 A3026 RMK AO2 SLP253 P0000 T10061039
Traffic Incident Summary
Active as of:
Severity:
Category:
InformationThere was an issue retrieving the traffic information for this location. Please try a different location or try again shortly.
Advertisements
Track Severe Weather on mobile